sensor_id;sensor_type;location;lat;lon;timestamp;P1;durP1;ratioP1;P2;durP2;ratioP2
20559;SDS011;10438;51.454;6.718;2023-06-22T00:01:10;11.18;;;8.18;;
20559;SDS011;10438;51.454;6.718;2023-06-22T00:03:36;17.08;;;7.55;;
20559;SDS011;10438;51.454;6.718;2023-06-22T00:06:01;11.63;;;7.70;;
20559;SDS011;10438;51.454;6.718;2023-06-22T00:08:27;14.63;;;8.32;;
20559;SDS011;10438;51.454;6.718;2023-06-22T00:10:52;12.48;;;7.28;;
20559;SDS011;10438;51.454;6.718;2023-06-22T00:13:18;11.98;;;6.93;;
20559;SDS011;10438;51.454;6.718;2023-06-22T00:15:44;15.43;;;7.38;;
20559;SDS011;10438;51.454;6.718;2023-06-22T00:18:10;12.82;;;7.30;;
20559;SDS011;10438;51.454;6.718;2023-06-22T00:20:36;11.77;;;7.28;;
20559;SDS011;10438;51.454;6.718;2023-06-22T00:23:03;11.30;;;8.68;;
20559;SDS011;10438;51.454;6.718;2023-06-22T00:25:39;12.80;;;7.82;;
20559;SDS011;10438;51.454;6.718;2023-06-22T00:28:05;11.68;;;8.68;;
20559;SDS011;10438;51.454;6.718;2023-06-22T00:30:32;14.07;;;8.15;;
20559;SDS011;10438;51.454;6.718;2023-06-22T00:32:59;10.40;;;7.82;;
20559;SDS011;10438;51.454;6.718;2023-06-22T00:35:25;12.68;;;8.23;;
20559;SDS011;10438;51.454;6.718;2023-06-22T00:37:57;14.77;;;8.18;;
20559;SDS011;10438;51.454;6.718;2023-06-22T00:40:25;13.30;;;7.65;;
20559;SDS011;10438;51.454;6.718;2023-06-22T00:42:51;14.02;;;8.70;;
20559;SDS011;10438;51.454;6.718;2023-06-22T00:45:16;15.02;;;8.95;;
20559;SDS011;10438;51.454;6.718;2023-06-22T00:47:42;12.70;;;8.35;;
20559;SDS011;10438;51.454;6.718;2023-06-22T00:50:09;12.52;;;7.95;;
20559;SDS011;10438;51.454;6.718;2023-06-22T00:52:38;14.88;;;8.93;;
20559;SDS011;10438;51.454;6.718;2023-06-22T00:55:09;17.17;;;8.32;;
20559;SDS011;10438;51.454;6.718;2023-06-22T00:57:34;13.95;;;8.20;;
20559;SDS011;10438;51.454;6.718;2023-06-22T01:00:02;12.60;;;8.52;;
20559;SDS011;10438;51.454;6.718;2023-06-22T01:02:31;15.32;;;8.93;;
20559;SDS011;10438;51.454;6.718;2023-06-22T01:04:57;13.20;;;8.63;;
20559;SDS011;10438;51.454;6.718;2023-06-22T01:07:34;12.18;;;8.68;;
20559;SDS011;10438;51.454;6.718;2023-06-22T01:10:18;12.93;;;8.15;;
20559;SDS011;10438;51.454;6.718;2023-06-22T01:13:08;13.57;;;8.75;;
20559;SDS011;10438;51.454;6.718;2023-06-22T01:16:03;11.98;;;8.55;;
20559;SDS011;10438;51.454;6.718;2023-06-22T01:18:34;12.90;;;8.82;;
20559;SDS011;10438;51.454;6.718;2023-06-22T01:21:01;14.05;;;9.05;;
20559;SDS011;10438;51.454;6.718;2023-06-22T01:23:37;14.20;;;9.00;;
20559;SDS011;10438;51.454;6.718;2023-06-22T01:26:17;14.18;;;9.82;;
20559;SDS011;10438;51.454;6.718;2023-06-22T01:28:53;12.20;;;9.07;;
20559;SDS011;10438;51.454;6.718;2023-06-22T01:31:26;15.85;;;9.25;;
20559;SDS011;10438;51.454;6.718;2023-06-22T01:33:57;12.43;;;9.00;;
20559;SDS011;10438;51.454;6.718;2023-06-22T01:36:25;13.02;;;9.38;;
20559;SDS011;10438;51.454;6.718;2023-06-22T01:38:51;19.30;;;11.10;;
20559;SDS011;10438;51.454;6.718;2023-06-22T01:41:18;18.23;;;9.90;;
20559;SDS011;10438;51.454;6.718;2023-06-22T01:43:45;24.85;;;11.88;;
20559;SDS011;10438;51.454;6.718;2023-06-22T01:46:11;23.48;;;11.13;;
20559;SDS011;10438;51.454;6.718;2023-06-22T01:48:38;19.15;;;10.57;;
20559;SDS011;10438;51.454;6.718;2023-06-22T01:51:04;17.95;;;11.63;;
20559;SDS011;10438;51.454;6.718;2023-06-22T01:53:30;17.90;;;11.00;;
20559;SDS011;10438;51.454;6.718;2023-06-22T01:55:56;18.33;;;11.90;;
20559;SDS011;10438;51.454;6.718;2023-06-22T01:58:23;16.92;;;10.88;;
20559;SDS011;10438;51.454;6.718;2023-06-22T02:00:56;16.48;;;10.70;;
20559;SDS011;10438;51.454;6.718;2023-06-22T02:03:32;16.30;;;11.00;;
20559;SDS011;10438;51.454;6.718;2023-06-22T02:06:05;16.42;;;11.15;;
20559;SDS011;10438;51.454;6.718;2023-06-22T02:08:46;14.88;;;10.35;;
20559;SDS011;10438;51.454;6.718;2023-06-22T02:11:16;18.45;;;11.77;;
20559;SDS011;10438;51.454;6.718;2023-06-22T02:13:45;15.38;;;11.80;;
20559;SDS011;10438;51.454;6.718;2023-06-22T02:16:11;16.88;;;11.57;;
20559;SDS011;10438;51.454;6.718;2023-06-22T02:18:38;16.23;;;11.75;;
20559;SDS011;10438;51.454;6.718;2023-06-22T02:21:05;16.95;;;12.93;;
20559;SDS011;10438;51.454;6.718;2023-06-22T02:23:31;17.10;;;12.30;;
20559;SDS011;10438;51.454;6.718;2023-06-22T02:25:59;14.88;;;10.98;;
20559;SDS011;10438;51.454;6.718;2023-06-22T02:28:25;17.45;;;11.85;;
20559;SDS011;10438;51.454;6.718;2023-06-22T02:30:51;21.02;;;12.73;;
20559;SDS011;10438;51.454;6.718;2023-06-22T02:33:16;17.80;;;12.30;;
20559;SDS011;10438;51.454;6.718;2023-06-22T02:35:42;21.92;;;12.20;;
20559;SDS011;10438;51.454;6.718;2023-06-22T02:38:10;14.73;;;10.77;;
20559;SDS011;10438;51.454;6.718;2023-06-22T02:40:36;17.40;;;11.63;;
20559;SDS011;10438;51.454;6.718;2023-06-22T02:43:01;17.77;;;12.82;;
20559;SDS011;10438;51.454;6.718;2023-06-22T02:45:28;16.38;;;11.48;;
20559;SDS011;10438;51.454;6.718;2023-06-22T02:47:54;18.00;;;12.00;;
20559;SDS011;10438;51.454;6.718;2023-06-22T02:50:20;16.30;;;13.10;;
20559;SDS011;10438;51.454;6.718;2023-06-22T02:52:45;15.50;;;12.10;;
20559;SDS011;10438;51.454;6.718;2023-06-22T02:55:11;17.00;;;12.55;;
20559;SDS011;10438;51.454;6.718;2023-06-22T02:57:37;18.70;;;12.98;;
20559;SDS011;10438;51.454;6.718;2023-06-22T03:00:03;16.67;;;12.63;;
20559;SDS011;10438;51.454;6.718;2023-06-22T03:02:43;17.58;;;12.23;;
20559;SDS011;10438;51.454;6.718;2023-06-22T03:05:09;15.98;;;12.88;;
20559;SDS011;10438;51.454;6.718;2023-06-22T03:07:38;19.92;;;12.43;;
20559;SDS011;10438;51.454;6.718;2023-06-22T03:10:08;16.60;;;12.75;;
20559;SDS011;10438;51.454;6.718;2023-06-22T03:12:34;15.43;;;12.45;;
20559;SDS011;10438;51.454;6.718;2023-06-22T03:15:00;22.33;;;12.75;;
20559;SDS011;10438;51.454;6.718;2023-06-22T03:17:26;18.80;;;13.05;;
20559;SDS011;10438;51.454;6.718;2023-06-22T03:19:51;18.05;;;12.60;;
20559;SDS011;10438;51.454;6.718;2023-06-22T03:22:17;23.52;;;13.30;;
20559;SDS011;10438;51.454;6.718;2023-06-22T03:24:42;17.60;;;13.43;;
20559;SDS011;10438;51.454;6.718;2023-06-22T03:27:08;18.92;;;13.93;;
20559;SDS011;10438;51.454;6.718;2023-06-22T03:29:33;20.98;;;14.43;;
20559;SDS011;10438;51.454;6.718;2023-06-22T03:31:59;17.92;;;13.70;;
20559;SDS011;10438;51.454;6.718;2023-06-22T03:34:24;21.27;;;13.68;;
20559;SDS011;10438;51.454;6.718;2023-06-22T03:36:50;20.75;;;13.82;;
20559;SDS011;10438;51.454;6.718;2023-06-22T03:39:15;18.50;;;14.18;;
20559;SDS011;10438;51.454;6.718;2023-06-22T03:41:41;21.85;;;14.63;;
20559;SDS011;10438;51.454;6.718;2023-06-22T03:44:07;20.70;;;15.07;;
20559;SDS011;10438;51.454;6.718;2023-06-22T03:46:35;22.65;;;15.02;;
20559;SDS011;10438;51.454;6.718;2023-06-22T03:49:01;19.15;;;14.93;;
20559;SDS011;10438;51.454;6.718;2023-06-22T03:51:28;20.00;;;14.60;;
20559;SDS011;10438;51.454;6.718;2023-06-22T03:53:53;21.50;;;13.98;;
20559;SDS011;10438;51.454;6.718;2023-06-22T03:56:19;21.90;;;15.68;;
20559;SDS011;10438;51.454;6.718;2023-06-22T03:58:46;19.80;;;15.20;;
20559;SDS011;10438;51.454;6.718;2023-06-22T04:01:11;23.55;;;14.85;;
20559;SDS011;10438;51.454;6.718;2023-06-22T04:03:37;20.20;;;14.32;;
20559;SDS011;10438;51.454;6.718;2023-06-22T04:06:04;24.88;;;18.85;;
20559;SDS011;10438;51.454;6.718;2023-06-22T04:08:29;20.73;;;13.88;;
20559;SDS011;10438;51.454;6.718;2023-06-22T04:10:55;23.58;;;16.40;;
20559;SDS011;10438;51.454;6.718;2023-06-22T04:13:21;20.20;;;15.80;;
20559;SDS011;10438;51.454;6.718;2023-06-22T04:15:46;22.00;;;15.63;;
20559;SDS011;10438;51.454;6.718;2023-06-22T04:18:12;19.60;;;15.52;;
20559;SDS011;10438;51.454;6.718;2023-06-22T04:20:38;21.77;;;14.90;;
20559;SDS011;10438;51.454;6.718;2023-06-22T04:23:04;18.27;;;14.40;;
20559;SDS011;10438;51.454;6.718;2023-06-22T04:25:30;20.33;;;15.23;;
20559;SDS011;10438;51.454;6.718;2023-06-22T04:27:55;19.17;;;14.77;;
20559;SDS011;10438;51.454;6.718;2023-06-22T04:30:21;21.23;;;14.80;;
20559;SDS011;10438;51.454;6.718;2023-06-22T04:32:47;20.77;;;14.52;;
20559;SDS011;10438;51.454;6.718;2023-06-22T04:35:30;24.20;;;15.38;;
20559;SDS011;10438;51.454;6.718;2023-06-22T04:37:57;20.23;;;15.48;;
20559;SDS011;10438;51.454;6.718;2023-06-22T04:40:23;20.52;;;15.07;;
20559;SDS011;10438;51.454;6.718;2023-06-22T04:42:49;21.73;;;14.38;;
20559;SDS011;10438;51.454;6.718;2023-06-22T04:45:18;18.80;;;14.20;;
20559;SDS011;10438;51.454;6.718;2023-06-22T04:47:44;22.48;;;15.00;;
20559;SDS011;10438;51.454;6.718;2023-06-22T04:50:10;21.15;;;14.60;;
20559;SDS011;10438;51.454;6.718;2023-06-22T04:52:36;20.17;;;14.80;;
20559;SDS011;10438;51.454;6.718;2023-06-22T04:55:02;19.25;;;14.95;;
20559;SDS011;10438;51.454;6.718;2023-06-22T04:57:28;20.13;;;15.63;;
20559;SDS011;10438;51.454;6.718;2023-06-22T04:59:57;20.25;;;15.02;;
20559;SDS011;10438;51.454;6.718;2023-06-22T05:02:46;18.60;;;15.05;;
20559;SDS011;10438;51.454;6.718;2023-06-22T05:05:12;20.15;;;13.85;;
20559;SDS011;10438;51.454;6.718;2023-06-22T05:07:45;19.80;;;14.63;;
20559;SDS011;10438;51.454;6.718;2023-06-22T05:10:13;20.35;;;15.75;;
20559;SDS011;10438;51.454;6.718;2023-06-22T05:12:40;22.73;;;14.52;;
20559;SDS011;10438;51.454;6.718;2023-06-22T05:15:06;19.20;;;13.73;;
20559;SDS011;10438;51.454;6.718;2023-06-22T05:17:33;21.75;;;14.32;;
20559;SDS011;10438;51.454;6.718;2023-06-22T05:19:59;20.25;;;14.20;;
20559;SDS011;10438;51.454;6.718;2023-06-22T05:22:24;18.67;;;14.75;;
20559;SDS011;10438;51.454;6.718;2023-06-22T05:24:50;21.55;;;13.77;;
20559;SDS011;10438;51.454;6.718;2023-06-22T05:27:15;18.85;;;14.10;;
20559;SDS011;10438;51.454;6.718;2023-06-22T05:29:41;22.23;;;14.25;;
20559;SDS011;10438;51.454;6.718;2023-06-22T05:32:07;22.50;;;14.80;;
20559;SDS011;10438;51.454;6.718;2023-06-22T05:34:33;17.77;;;13.23;;
20559;SDS011;10438;51.454;6.718;2023-06-22T05:36:58;20.77;;;13.73;;
20559;SDS011;10438;51.454;6.718;2023-06-22T05:39:24;22.70;;;13.85;;
20559;SDS011;10438;51.454;6.718;2023-06-22T05:41:51;18.50;;;13.13;;
20559;SDS011;10438;51.454;6.718;2023-06-22T05:44:17;21.52;;;13.32;;
20559;SDS011;10438;51.454;6.718;2023-06-22T05:46:43;19.30;;;14.05;;
20559;SDS011;10438;51.454;6.718;2023-06-22T05:49:14;20.35;;;12.82;;
20559;SDS011;10438;51.454;6.718;2023-06-22T05:51:40;18.52;;;13.82;;
20559;SDS011;10438;51.454;6.718;2023-06-22T05:54:06;20.23;;;14.45;;
20559;SDS011;10438;51.454;6.718;2023-06-22T05:56:33;20.20;;;13.95;;
20559;SDS011;10438;51.454;6.718;2023-06-22T05:58:59;21.23;;;14.80;;
20559;SDS011;10438;51.454;6.718;2023-06-22T06:01:24;23.65;;;15.05;;
20559;SDS011;10438;51.454;6.718;2023-06-22T06:03:51;22.40;;;14.45;;
20559;SDS011;10438;51.454;6.718;2023-06-22T06:06:17;21.80;;;14.85;;
20559;SDS011;10438;51.454;6.718;2023-06-22T06:08:43;21.60;;;15.43;;
20559;SDS011;10438;51.454;6.718;2023-06-22T06:11:08;23.33;;;14.70;;
20559;SDS011;10438;51.454;6.718;2023-06-22T06:13:34;18.63;;;14.02;;
20559;SDS011;10438;51.454;6.718;2023-06-22T06:16:00;22.23;;;15.00;;
20559;SDS011;10438;51.454;6.718;2023-06-22T06:18:26;23.38;;;13.95;;
20559;SDS011;10438;51.454;6.718;2023-06-22T06:20:51;22.15;;;14.45;;
20559;SDS011;10438;51.454;6.718;2023-06-22T06:23:17;24.02;;;14.55;;
20559;SDS011;10438;51.454;6.718;2023-06-22T06:25:42;27.02;;;13.80;;
20559;SDS011;10438;51.454;6.718;2023-06-22T06:28:08;25.85;;;14.75;;
20559;SDS011;10438;51.454;6.718;2023-06-22T06:30:33;20.90;;;13.88;;
20559;SDS011;10438;51.454;6.718;2023-06-22T06:33:02;20.98;;;14.43;;
20559;SDS011;10438;51.454;6.718;2023-06-22T06:35:27;23.05;;;14.45;;
20559;SDS011;10438;51.454;6.718;2023-06-22T06:37:53;20.45;;;14.52;;
20559;SDS011;10438;51.454;6.718;2023-06-22T06:40:19;22.13;;;14.95;;
20559;SDS011;10438;51.454;6.718;2023-06-22T06:42:47;20.73;;;14.73;;
20559;SDS011;10438;51.454;6.718;2023-06-22T06:45:18;20.95;;;14.10;;
20559;SDS011;10438;51.454;6.718;2023-06-22T06:47:47;23.75;;;15.93;;
20559;SDS011;10438;51.454;6.718;2023-06-22T06:50:13;19.15;;;14.85;;
20559;SDS011;10438;51.454;6.718;2023-06-22T06:52:38;24.20;;;15.48;;
20559;SDS011;10438;51.454;6.718;2023-06-22T06:55:04;23.02;;;14.50;;
20559;SDS011;10438;51.454;6.718;2023-06-22T06:57:34;19.17;;;14.90;;
20559;SDS011;10438;51.454;6.718;2023-06-22T07:00:00;23.00;;;14.55;;
20559;SDS011;10438;51.454;6.718;2023-06-22T07:02:26;21.45;;;14.05;;
20559;SDS011;10438;51.454;6.718;2023-06-22T07:04:54;22.00;;;14.48;;
20559;SDS011;10438;51.454;6.718;2023-06-22T07:07:23;21.05;;;13.55;;
20559;SDS011;10438;51.454;6.718;2023-06-22T07:09:49;19.25;;;14.63;;
20559;SDS011;10438;51.454;6.718;2023-06-22T07:12:14;22.00;;;16.17;;
20559;SDS011;10438;51.454;6.718;2023-06-22T07:14:40;22.90;;;14.63;;
20559;SDS011;10438;51.454;6.718;2023-06-22T07:17:06;20.23;;;15.48;;
20559;SDS011;10438;51.454;6.718;2023-06-22T07:19:32;19.48;;;15.68;;
20559;SDS011;10438;51.454;6.718;2023-06-22T07:21:58;21.58;;;15.88;;
20559;SDS011;10438;51.454;6.718;2023-06-22T07:24:24;21.00;;;15.70;;
20559;SDS011;10438;51.454;6.718;2023-06-22T07:26:50;19.98;;;15.10;;
20559;SDS011;10438;51.454;6.718;2023-06-22T07:29:19;20.48;;;14.98;;
20559;SDS011;10438;51.454;6.718;2023-06-22T07:31:46;21.23;;;15.30;;
20559;SDS011;10438;51.454;6.718;2023-06-22T07:34:12;21.27;;;16.00;;
20559;SDS011;10438;51.454;6.718;2023-06-22T07:36:38;22.58;;;15.57;;
20559;SDS011;10438;51.454;6.718;2023-06-22T07:39:04;20.80;;;14.70;;
20559;SDS011;10438;51.454;6.718;2023-06-22T07:41:30;24.38;;;15.10;;
20559;SDS011;10438;51.454;6.718;2023-06-22T07:43:56;23.40;;;16.45;;
20559;SDS011;10438;51.454;6.718;2023-06-22T07:46:22;28.48;;;16.65;;
20559;SDS011;10438;51.454;6.718;2023-06-22T07:48:47;24.10;;;16.00;;
20559;SDS011;10438;51.454;6.718;2023-06-22T07:51:13;25.35;;;16.90;;
20559;SDS011;10438;51.454;6.718;2023-06-22T07:53:40;33.13;;;16.40;;
20559;SDS011;10438;51.454;6.718;2023-06-22T07:56:07;24.65;;;15.98;;
20559;SDS011;10438;51.454;6.718;2023-06-22T07:58:35;28.27;;;17.63;;
20559;SDS011;10438;51.454;6.718;2023-06-22T08:01:00;21.88;;;15.55;;
20559;SDS011;10438;51.454;6.718;2023-06-22T08:03:26;26.45;;;17.73;;
20559;SDS011;10438;51.454;6.718;2023-06-22T08:05:52;24.48;;;16.75;;
20559;SDS011;10438;51.454;6.718;2023-06-22T08:08:17;24.63;;;16.60;;
20559;SDS011;10438;51.454;6.718;2023-06-22T08:10:43;25.00;;;17.15;;
20559;SDS011;10438;51.454;6.718;2023-06-22T08:13:08;31.58;;;17.83;;
20559;SDS011;10438;51.454;6.718;2023-06-22T08:15:34;28.55;;;18.55;;
20559;SDS011;10438;51.454;6.718;2023-06-22T08:18:00;30.10;;;18.75;;
20559;SDS011;10438;51.454;6.718;2023-06-22T08:20:26;32.28;;;19.25;;
20559;SDS011;10438;51.454;6.718;2023-06-22T08:22:53;25.85;;;17.30;;
20559;SDS011;10438;51.454;6.718;2023-06-22T08:25:19;27.17;;;18.40;;
20559;SDS011;10438;51.454;6.718;2023-06-22T08:27:45;26.85;;;17.60;;
20559;SDS011;10438;51.454;6.718;2023-06-22T08:30:12;25.67;;;18.85;;
20559;SDS011;10438;51.454;6.718;2023-06-22T08:32:38;24.20;;;18.63;;
20559;SDS011;10438;51.454;6.718;2023-06-22T08:35:04;22.48;;;16.40;;
20559;SDS011;10438;51.454;6.718;2023-06-22T08:37:31;23.25;;;17.48;;
20559;SDS011;10438;51.454;6.718;2023-06-22T08:40:00;21.77;;;15.80;;
20559;SDS011;10438;51.454;6.718;2023-06-22T08:42:28;22.67;;;16.80;;
20559;SDS011;10438;51.454;6.718;2023-06-22T08:44:53;23.67;;;17.55;;
20559;SDS011;10438;51.454;6.718;2023-06-22T08:47:20;25.20;;;17.70;;
20559;SDS011;10438;51.454;6.718;2023-06-22T08:49:46;23.05;;;18.27;;
20559;SDS011;10438;51.454;6.718;2023-06-22T08:52:12;25.58;;;18.27;;
20559;SDS011;10438;51.454;6.718;2023-06-22T08:54:37;23.45;;;17.98;;
20559;SDS011;10438;51.454;6.718;2023-06-22T08:57:03;23.52;;;18.17;;
20559;SDS011;10438;51.454;6.718;2023-06-22T08:59:29;20.58;;;17.80;;
20559;SDS011;10438;51.454;6.718;2023-06-22T09:01:54;22.17;;;18.77;;
20559;SDS011;10438;51.454;6.718;2023-06-22T09:04:20;28.20;;;19.60;;
20559;SDS011;10438;51.454;6.718;2023-06-22T09:06:48;25.30;;;18.75;;
20559;SDS011;10438;51.454;6.718;2023-06-22T09:09:15;27.70;;;18.70;;
20559;SDS011;10438;51.454;6.718;2023-06-22T09:11:41;29.05;;;20.15;;
20559;SDS011;10438;51.454;6.718;2023-06-22T09:14:07;23.98;;;18.90;;
20559;SDS011;10438;51.454;6.718;2023-06-22T09:16:33;23.42;;;18.98;;
20559;SDS011;10438;51.454;6.718;2023-06-22T09:18:59;27.98;;;18.70;;
20559;SDS011;10438;51.454;6.718;2023-06-22T09:21:24;25.15;;;18.10;;
20559;SDS011;10438;51.454;6.718;2023-06-22T09:23:50;23.77;;;19.50;;
20559;SDS011;10438;51.454;6.718;2023-06-22T09:26:19;22.30;;;18.13;;
20559;SDS011;10438;51.454;6.718;2023-06-22T09:28:45;28.75;;;19.38;;
20559;SDS011;10438;51.454;6.718;2023-06-22T09:31:11;26.17;;;16.90;;
20559;SDS011;10438;51.454;6.718;2023-06-22T09:33:36;22.88;;;17.73;;
20559;SDS011;10438;51.454;6.718;2023-06-22T09:36:06;21.45;;;16.98;;
20559;SDS011;10438;51.454;6.718;2023-06-22T09:38:35;22.83;;;17.88;;
20559;SDS011;10438;51.454;6.718;2023-06-22T09:41:02;20.52;;;17.75;;
20559;SDS011;10438;51.454;6.718;2023-06-22T09:43:28;20.60;;;17.38;;
20559;SDS011;10438;51.454;6.718;2023-06-22T09:45:54;24.42;;;18.75;;
20559;SDS011;10438;51.454;6.718;2023-06-22T09:48:20;21.48;;;17.90;;
20559;SDS011;10438;51.454;6.718;2023-06-22T09:50:45;21.83;;;17.30;;
20559;SDS011;10438;51.454;6.718;2023-06-22T09:53:11;25.33;;;18.17;;
20559;SDS011;10438;51.454;6.718;2023-06-22T09:55:37;20.38;;;17.65;;
20559;SDS011;10438;51.454;6.718;2023-06-22T09:58:02;21.30;;;17.27;;
20559;SDS011;10438;51.454;6.718;2023-06-22T10:00:28;24.63;;;19.08;;
20559;SDS011;10438;51.454;6.718;2023-06-22T10:02:53;22.92;;;18.63;;
20559;SDS011;10438;51.454;6.718;2023-06-22T10:05:20;39.28;;;29.85;;
20559;SDS011;10438;51.454;6.718;2023-06-22T10:07:46;75.63;;;51.88;;
20559;SDS011;10438;51.454;6.718;2023-06-22T10:10:12;30.58;;;18.70;;
20559;SDS011;10438;51.454;6.718;2023-06-22T10:12:45;26.58;;;19.38;;
20559;SDS011;10438;51.454;6.718;2023-06-22T10:15:12;24.95;;;17.60;;
20559;SDS011;10438;51.454;6.718;2023-06-22T10:17:38;24.65;;;18.92;;
20559;SDS011;10438;51.454;6.718;2023-06-22T10:20:05;21.15;;;16.65;;
20559;SDS011;10438;51.454;6.718;2023-06-22T10:22:38;21.08;;;16.30;;
20559;SDS011;10438;51.454;6.718;2023-06-22T10:25:08;19.02;;;15.82;;
20559;SDS011;10438;51.454;6.718;2023-06-22T10:27:35;22.02;;;17.17;;
20559;SDS011;10438;51.454;6.718;2023-06-22T10:30:01;20.38;;;16.48;;
20559;SDS011;10438;51.454;6.718;2023-06-22T10:32:27;17.48;;;14.70;;
20559;SDS011;10438;51.454;6.718;2023-06-22T10:34:53;21.95;;;15.48;;
20559;SDS011;10438;51.454;6.718;2023-06-22T10:37:19;21.02;;;15.00;;
20559;SDS011;10438;51.454;6.718;2023-06-22T10:39:44;20.67;;;14.88;;
20559;SDS011;10438;51.454;6.718;2023-06-22T10:42:11;20.33;;;13.95;;
20559;SDS011;10438;51.454;6.718;2023-06-22T10:44:37;21.25;;;16.13;;
20559;SDS011;10438;51.454;6.718;2023-06-22T10:47:03;19.58;;;14.93;;
20559;SDS011;10438;51.454;6.718;2023-06-22T10:49:29;19.25;;;16.17;;
20559;SDS011;10438;51.454;6.718;2023-06-22T10:51:55;22.27;;;15.45;;
20559;SDS011;10438;51.454;6.718;2023-06-22T10:54:20;22.15;;;16.63;;
20559;SDS011;10438;51.454;6.718;2023-06-22T10:56:46;19.48;;;15.48;;
20559;SDS011;10438;51.454;6.718;2023-06-22T10:59:11;20.67;;;16.20;;
20559;SDS011;10438;51.454;6.718;2023-06-22T11:01:37;25.73;;;16.65;;
20559;SDS011;10438;51.454;6.718;2023-06-22T11:04:03;21.08;;;15.48;;
20559;SDS011;10438;51.454;6.718;2023-06-22T11:06:29;25.15;;;16.38;;
20559;SDS011;10438;51.454;6.718;2023-06-22T11:08:54;19.08;;;14.90;;
20559;SDS011;10438;51.454;6.718;2023-06-22T11:11:20;16.02;;;14.32;;
20559;SDS011;10438;51.454;6.718;2023-06-22T11:13:45;22.70;;;16.80;;
20559;SDS011;10438;51.454;6.718;2023-06-22T11:16:10;19.63;;;15.98;;
20559;SDS011;10438;51.454;6.718;2023-06-22T11:18:36;18.33;;;15.88;;
20559;SDS011;10438;51.454;6.718;2023-06-22T11:21:02;20.50;;;15.85;;
20559;SDS011;10438;51.454;6.718;2023-06-22T11:23:27;27.50;;;16.50;;
20559;SDS011;10438;51.454;6.718;2023-06-22T11:25:53;21.30;;;15.95;;
20559;SDS011;10438;51.454;6.718;2023-06-22T11:28:19;24.52;;;17.20;;
20559;SDS011;10438;51.454;6.718;2023-06-22T11:30:45;28.70;;;18.73;;
20559;SDS011;10438;51.454;6.718;2023-06-22T11:33:10;22.98;;;18.35;;
20559;SDS011;10438;51.454;6.718;2023-06-22T11:35:36;27.10;;;19.10;;
20559;SDS011;10438;51.454;6.718;2023-06-22T11:38:01;25.25;;;20.13;;
20559;SDS011;10438;51.454;6.718;2023-06-22T11:40:28;25.40;;;19.55;;
20559;SDS011;10438;51.454;6.718;2023-06-22T11:42:54;25.58;;;20.65;;
20559;SDS011;10438;51.454;6.718;2023-06-22T11:45:19;29.73;;;22.88;;
20559;SDS011;10438;51.454;6.718;2023-06-22T11:47:45;32.22;;;25.80;;
20559;SDS011;10438;51.454;6.718;2023-06-22T11:50:11;41.08;;;26.67;;
20559;SDS011;10438;51.454;6.718;2023-06-22T11:52:36;35.20;;;26.08;;
20559;SDS011;10438;51.454;6.718;2023-06-22T11:55:02;49.15;;;30.75;;
20559;SDS011;10438;51.454;6.718;2023-06-22T11:57:30;50.38;;;33.40;;
20559;SDS011;10438;51.454;6.718;2023-06-22T11:59:58;56.05;;;36.15;;
20559;SDS011;10438;51.454;6.718;2023-06-22T12:02:23;46.13;;;33.13;;
20559;SDS011;10438;51.454;6.718;2023-06-22T12:04:49;46.47;;;35.00;;
20559;SDS011;10438;51.454;6.718;2023-06-22T12:07:17;42.97;;;32.42;;
20559;SDS011;10438;51.454;6.718;2023-06-22T12:09:43;42.47;;;32.20;;
20559;SDS011;10438;51.454;6.718;2023-06-22T12:12:09;46.78;;;33.65;;
20559;SDS011;10438;51.454;6.718;2023-06-22T12:14:34;44.33;;;34.78;;
20559;SDS011;10438;51.454;6.718;2023-06-22T12:17:00;39.00;;;32.90;;
20559;SDS011;10438;51.454;6.718;2023-06-22T12:19:25;42.45;;;33.03;;
20559;SDS011;10438;51.454;6.718;2023-06-22T12:21:51;42.13;;;32.58;;
20559;SDS011;10438;51.454;6.718;2023-06-22T12:24:17;50.95;;;35.40;;
20559;SDS011;10438;51.454;6.718;2023-06-22T12:26:42;45.90;;;34.63;;
20559;SDS011;10438;51.454;6.718;2023-06-22T12:29:08;42.75;;;32.65;;
20559;SDS011;10438;51.454;6.718;2023-06-22T12:31:34;43.60;;;33.70;;
20559;SDS011;10438;51.454;6.718;2023-06-22T12:34:00;42.60;;;36.15;;
20559;SDS011;10438;51.454;6.718;2023-06-22T12:36:26;40.38;;;32.88;;
20559;SDS011;10438;51.454;6.718;2023-06-22T12:38:51;47.20;;;34.55;;
20559;SDS011;10438;51.454;6.718;2023-06-22T12:41:17;41.92;;;33.05;;
20559;SDS011;10438;51.454;6.718;2023-06-22T12:43:42;37.63;;;29.23;;
20559;SDS011;10438;51.454;6.718;2023-06-22T12:46:08;39.17;;;29.00;;
20559;SDS011;10438;51.454;6.718;2023-06-22T12:48:33;34.92;;;28.73;;
20559;SDS011;10438;51.454;6.718;2023-06-22T12:50:59;34.70;;;28.83;;
20559;SDS011;10438;51.454;6.718;2023-06-22T12:53:24;37.92;;;28.52;;
20559;SDS011;10438;51.454;6.718;2023-06-22T12:55:52;35.05;;;28.73;;
20559;SDS011;10438;51.454;6.718;2023-06-22T12:58:17;33.92;;;28.13;;
20559;SDS011;10438;51.454;6.718;2023-06-22T13:00:43;32.22;;;27.75;;
20559;SDS011;10438;51.454;6.718;2023-06-22T13:03:08;36.90;;;28.95;;
20559;SDS011;10438;51.454;6.718;2023-06-22T13:05:34;34.30;;;28.40;;
20559;SDS011;10438;51.454;6.718;2023-06-22T13:08:01;36.13;;;28.38;;
20559;SDS011;10438;51.454;6.718;2023-06-22T13:10:26;36.60;;;30.95;;
20559;SDS011;10438;51.454;6.718;2023-06-22T13:12:52;36.13;;;30.75;;
20559;SDS011;10438;51.454;6.718;2023-06-22T13:15:25;39.83;;;32.70;;
20559;SDS011;10438;51.454;6.718;2023-06-22T13:17:51;40.83;;;29.35;;
20559;SDS011;10438;51.454;6.718;2023-06-22T13:20:17;36.72;;;31.42;;
20559;SDS011;10438;51.454;6.718;2023-06-22T13:22:42;42.15;;;31.50;;
20559;SDS011;10438;51.454;6.718;2023-06-22T13:25:08;38.55;;;32.20;;
20559;SDS011;10438;51.454;6.718;2023-06-22T13:27:37;41.58;;;33.03;;
20559;SDS011;10438;51.454;6.718;2023-06-22T13:30:04;38.88;;;32.10;;
20559;SDS011;10438;51.454;6.718;2023-06-22T13:32:29;40.05;;;32.65;;
20559;SDS011;10438;51.454;6.718;2023-06-22T13:34:55;38.08;;;33.40;;
20559;SDS011;10438;51.454;6.718;2023-06-22T13:37:20;39.13;;;33.35;;
20559;SDS011;10438;51.454;6.718;2023-06-22T13:39:46;40.85;;;33.45;;
20559;SDS011;10438;51.454;6.718;2023-06-22T13:42:11;43.90;;;33.83;;
20559;SDS011;10438;51.454;6.718;2023-06-22T13:44:37;38.08;;;32.78;;
20559;SDS011;10438;51.454;6.718;2023-06-22T13:47:03;46.33;;;33.67;;
20559;SDS011;10438;51.454;6.718;2023-06-22T13:49:29;42.50;;;32.00;;
20559;SDS011;10438;51.454;6.718;2023-06-22T13:51:55;37.83;;;32.65;;
20559;SDS011;10438;51.454;6.718;2023-06-22T13:54:20;44.97;;;32.72;;
20559;SDS011;10438;51.454;6.718;2023-06-22T13:56:46;37.22;;;33.00;;
20559;SDS011;10438;51.454;6.718;2023-06-22T13:59:12;38.60;;;32.50;;
20559;SDS011;10438;51.454;6.718;2023-06-22T14:01:37;36.72;;;30.02;;
20559;SDS011;10438;51.454;6.718;2023-06-22T14:04:04;40.10;;;30.48;;
20559;SDS011;10438;51.454;6.718;2023-06-22T14:06:30;42.78;;;32.60;;
20559;SDS011;10438;51.454;6.718;2023-06-22T14:08:56;36.55;;;29.88;;
20559;SDS011;10438;51.454;6.718;2023-06-22T14:11:21;35.75;;;28.70;;
20559;SDS011;10438;51.454;6.718;2023-06-22T14:13:47;33.80;;;28.38;;
20559;SDS011;10438;51.454;6.718;2023-06-22T14:16:12;33.08;;;28.75;;
20559;SDS011;10438;51.454;6.718;2023-06-22T14:18:38;36.88;;;30.38;;
20559;SDS011;10438;51.454;6.718;2023-06-22T14:21:04;34.00;;;30.23;;